Data for 06/25/2008

Time Sea-Level Adjusted Pressure Absolute Pressure Temperature Relative Humidity Dew Point   
(mb) (inHg) (mb) (inHg) (C) (F) (%) (C) (F)
00:05 1019 30.09 848 25.04 17.1 62.8 43 4.7 40.4
00:10 1019 30.09 848 25.04 16.9 62.4 44 4.6 40.3
00:15 1019 30.09 848 25.04 16.7 62.1 46 5.1 41.1
00:20 1019 30.09 848 25.04 16.5 61.6 45 4.6 40.3
00:25 1019 30.09 848 25.04 16.5 61.6 43 3.9 39
00:30 1019 30.09 848 25.04 16.8 62.2 43 4.3 39.7
00:35 1019 30.09 848 25.04 16.6 61.8 43 4 39.3
00:40 1019 30.09 848 25.04 16.5 61.7 42 3.8 38.9
00:45 1019 30.09 848 25.04 16.6 61.9 42 3.6 38.6
00:50 1019 30.09 848 25.04 16.6 61.9 42 3.6 38.6
00:55 1019 30.09 848 25.04 16.6 61.8 41 3.4 38.1
01:00 1019 30.09 848 25.04 16.6 61.8 41 3.3 37.9
01:05 1019 30.09 848 25.04 16.6 61.8 41 3.5 38.2
01:10 1019 30.09 848 25.04 16.5 61.6 41 3.3 37.9
01:15 1019 30.09 848 25.04 16.4 61.4 42 3.4 38.1
01:20 1019 30.09 848 25.04 16.1 61 49 5.6 42
01:25 1019 30.09 848 25.04 14.9 58.9 50 4.8 40.6
01:30 1019 30.09 848 25.04 14.3 57.8 55 5.4 41.7
01:35 1019 30.09 848 25.04 14 57.2 55 5.2 41.3
01:40 1019 30.09 848 25.04 14.1 57.3 54 4.9 40.9
01:45 1019 30.09 848 25.04 14 57.3 54 5 40.9
01:50 1019 30.09 848 25.04 14 57.2 53 4.6 40.3
01:55 1019 30.09 848 25.04 14 57.2 52 4.3 39.8
02:00 1019 30.09 848 25.04 13.9 57 54 4.7 40.5
02:05 1019 30.09 848 25.04 14 57.1 52 4.4 40
02:10 1019 30.09 848 25.04 14.1 57.3 54 4.9 40.8
02:15 1019 30.09 848 25.04 14 57.2 54 4.8 40.6
02:20 1019 30.09 848 25.04 13.8 56.9 53 4.6 40.2
02:25 1019 30.09 848 25.04 13.8 56.8 53 4.5 40.2
02:30 1019 30.09 848 25.04 13.8 56.8 54 4.6 40.3
02:35 1019 30.09 848 25.04 13.6 56.6 55 5 40.9
02:40 1019 30.09 848 25.04 13.5 56.3 56 4.8 40.7
02:45 1019 30.09 848 25.04 13.3 55.9 55 4.6 40.3
02:50 1019 30.09 848 25.04 13.2 55.8 56 4.6 40.2
02:55 1019 30.09 848 25.04 13.2 55.8 55 4.4 40
03:00 1019 30.09 848 25.04 13.1 55.7 57 4.9 40.8
03:05 1019 30.09 848 25.04 12.9 55.3 58 4.9 40.8
03:10 1019 30.09 848 25.04 12.8 55 59 5 40.9
03:15 1019 30.09 848 25.04 12.7 54.9 59 5 41
03:20 1019 30.09 848 25.04 12.8 55 58 4.7 40.4
03:25 1019 30.09 848 25.04 12.8 55.1 58 5 40.9
03:30 1019 30.09 848 25.04 12.7 54.8 60 5.1 41.3
03:35 1019 30.09 848 25.04 12.6 54.6 58 4.5 40
03:40 1019 30.09 848 25.04 12.8 55 58 4.8 40.7
03:45 1019 30.09 848 25.04 12.6 54.7 58 4.7 40.5
03:50 1019 30.09 848 25.04 12.8 55 57 4.5 40.2
03:55 1019 30.09 848 25.04 12.9 55.2 57 4.6 40.3
04:00 1019 30.09 848 25.04 12.8 55 57 4.5 40.2
04:05 1019 30.09 848 25.04 12.7 54.9 58 4.8 40.6
04:10 1019 30.09 848 25.04 12.6 54.7 59 4.8 40.7
04:15 1019 30.09 848 25.04 12.4 54.4 60 5 41.1
04:20 1019 30.09 848 25.04 12.2 53.9 61 4.9 40.8
04:25 1019 30.09 848 25.04 12.1 53.7 60 4.6 40.3
04:30 1019 30.09 848 25.04 12.3 54.1 60 4.9 40.8
04:35 1019 30.09 848 25.04 12.4 54.4 59 4.7 40.5
04:40 1019 30.09 848 25.04 12.5 54.6 59 4.9 40.8
04:45 1019 30.09 848 25.04 12.2 53.9 60 4.8 40.6
04:50 1019 30.09 848 25.04 12 53.6 60 4.6 40.2
04:55 1019 30.09 848 25.04 11.9 53.4 61 4.7 40.4
05:00 1019 30.09 848 25.04 11.7 53.1 62 4.6 40.4
05:05 1019 30.09 848 25.04 11.6 52.9 62 4.6 40.2
05:10 1019 30.09 849 25.07 11.5 52.7 63 4.7 40.5
05:15 1019 30.09 849 25.07 11.3 52.4 63 4.7 40.4
05:20 1019 30.09 849 25.07 11.2 52.2 64 4.7 40.5
05:25 1019 30.09 849 25.07 11.1 52 64 4.6 40.3
05:30 1019 30.09 849 25.07 11 51.8 65 4.7 40.5
05:35 1019 30.09 849 25.07 10.9 51.5 68 5.2 41.4
05:40 1019 30.09 849 25.07 10.5 50.8 68 4.9 40.9
05:45 1019 30.09 849 25.07 10.5 50.9 68 4.9 40.7
05:50 1019 30.09 849 25.07 10.5 50.9 67 4.7 40.5
05:55 1019 30.09 849 25.07 10.5 50.9 68 4.8 40.6
06:00 1020 30.12 849 25.07 10.4 50.7 68 4.8 40.6
06:05 1020 30.12 849 25.07 10.5 50.8 67 4.6 40.3
06:10 1020 30.12 849 25.07 10.6 51.1 67 4.7 40.5
06:15 1020 30.12 849 25.07 10.8 51.4 66 4.7 40.4
06:20 1020 30.12 849 25.07 10.9 51.6 66 4.7 40.5
06:25 1020 30.12 849 25.07 11.2 52.1 64 4.7 40.4
06:30 1020 30.12 849 25.07 11.4 52.5 64 4.9 40.8
06:35 1020 30.12 849 25.07 11.3 52.3 65 5 41
06:40 1020 30.12 849 25.07 11.4 52.5 64 4.9 40.8
06:45 1020 30.12 849 25.07 11.5 52.7 64 4.9 40.9
06:50 1020 30.12 849 25.07 11.7 53 64 5.1 41.1
06:55 1020 30.12 849 25.07 11.8 53.3 64 5.2 41.4
07:00 1020 30.12 849 25.07 11.9 53.4 63 5.2 41.3
07:05 1020 30.12 849 25.07 12.2 53.9 62 5.2 41.4
07:10 1020 30.12 849 25.07 12.6 54.7 61 5.3 41.5
07:15 1020 30.12 849 25.07 13 55.4 60 5.5 41.9
07:20 1020 30.12 849 25.07 13.3 56 58 5.3 41.6
07:25 1020 30.12 849 25.07 13.8 56.9 56 5.3 41.5
07:30 1020 30.12 849 25.07 14.2 57.5 56 5.7 42.3
07:35 1020 30.12 849 25.07 14.4 57.8 55 5.6 42.1
07:40 1020 30.12 849 25.07 15.1 59.2 52 5.5 42
07:45 1020 30.12 849 25.07 16 60.7 50 5.5 42
07:50 1020 30.12 849 25.07 16 60.8 51 5.9 42.7
07:55 1020 30.12 849 25.07 15.8 60.4 51 5.7 42.2
08:00 1020 30.12 849 25.07 15.9 60.6 51 5.8 42.5
08:05 1020 30.12 849 25.07 16.3 61.3 52 6.4 43.5
08:10 1020 30.12 849 25.07 17 62.5 49 6.4 43.5
08:15 1020 30.12 849 25.07 17.4 63.3 48 6.4 43.5
08:20 1020 30.12 849 25.07 17.9 64.1 45 5.9 42.6
08:25 1020 30.12 849 25.07 17.5 63.5 43 5 40.9
08:30 1020 30.12 849 25.07 17.8 64 45 5.9 42.5
08:35 1020 30.12 849 25.07 18 64.4 43 5.4 41.8
08:40 1020 30.12 849 25.07 18.1 64.5 42 5 41
08:45 1020 30.12 849 25.07 18.2 64.7 42 5.2 41.4
08:50 1020 30.12 849 25.07 18.2 64.8 41 5 41
08:55 1020 30.12 849 25.07 18.5 65.2 42 5.5 41.9
09:00 1020 30.12 849 25.07 18.9 65.9 41 5.3 41.6
09:05 1020 30.12 849 25.07 17.6 63.7 46 5.9 42.5
09:10 1020 30.12 849 25.07 18.4 65.1 44 6.1 43
09:15 1020 30.12 849 25.07 18.4 65 44 6.1 43
09:20 1020 30.12 849 25.07 18.7 65.6 43 6 42.7
09:25 1020 30.12 849 25.07 18.6 65.4 42 5.4 41.8
09:30 1020 30.12 849 25.07 18.8 65.9 40 5.2 41.3
09:35 1020 30.12 849 25.07 18.9 66 39 4.6 40.3
09:40 1020 30.12 849 25.07 18.7 65.7 38 4.2 39.6
09:45 1020 30.12 849 25.07 19.1 66.3 38 4.5 40.1
09:50 1020 30.12 849 25.07 19.2 66.6 37 4.3 39.7
09:55 1020 30.12 849 25.07 19.5 67 38 5.1 41.2
10:00 1020 30.12 849 25.07 19.4 66.9 37 4.7 40.4
10:05 1020 30.12 849 25.07 19.8 67.7 37 4.7 40.4
10:10 1020 30.12 849 25.07 19.8 67.6 37 4.8 40.6
10:15 1020 30.12 849 25.07 19.9 67.7 41 6.4 43.5
10:20 1020 30.12 849 25.07 19 66.2 41 5.5 42
10:25 1020 30.12 849 25.07 19.2 66.6 41 6 42.7
10:30 1020 30.12 849 25.07 19.1 66.3 40 5.3 41.6
10:35 1020 30.12 849 25.07 20.2 68.3 37 5 41
10:40 1020 30.12 849 25.07 19.6 67.3 40 5.7 42.3
10:45 1020 30.12 849 25.07 19.9 67.8 36 4.5 40.1
10:50 1020 30.12 849 25.07 20.7 69.3 35 4.8 40.7
10:55 1020 30.12 849 25.07 20.8 69.4 34 4.5 40
11:00 1020 30.12 849 25.07 20.8 69.4 35 5.1 41.2
11:05 1020 30.12 849 25.07 20.8 69.5 33 4.3 39.8
11:10 1020 30.12 849 25.07 20.9 69.7 33 4.4 39.8
11:15 1020 30.12 849 25.07 21.3 70.3 34 5 41
11:20 1020 30.12 849 25.07 20.8 69.5 35 4.9 40.8
11:25 1020 30.12 849 25.07 21.1 69.9 34 4.7 40.5
11:30 1020 30.12 849 25.07 21.5 70.7 32 4.3 39.7
11:35 1020 30.12 849 25.07 21.7 71 32 4.5 40.2
11:40 1019 30.09 849 25.07 21.9 71.5 33 5 40.9
11:45 1019 30.09 849 25.07 21.4 70.5 32 4.1 39.4
11:50 1019 30.09 849 25.07 21.6 71 31 4.1 39.3
11:55 1019 30.09 849 25.07 22.3 72.2 32 5.2 41.3
12:00 1019 30.09 849 25.07 22.5 72.4 32 5.2 41.3
12:05 1019 30.09 849 25.07 21.1 70.1 34 4.6 40.4
12:10 1019 30.09 848 25.04 22 71.5 31 4.2 39.6
12:15 1019 30.09 848 25.04 21.7 71.1 32 4.5 40.2
12:20 1019 30.09 848 25.04 22.6 72.6 31 4.9 40.7
12:25 1019 30.09 848 25.04 23.1 73.6 27 3.1 37.6
12:30 1019 30.09 848 25.04 23.1 73.5 30 4.7 40.4
12:35 1019 30.09 848 25.04 22.8 73.1 30 4.6 40.2
12:40 1019 30.09 848 25.04 23.1 73.7 30 4.7 40.5
12:45 1019 30.09 848 25.04 23 73.3 30 4.5 40.2
12:50 1019 30.09 848 25.04 23 73.4 30 4.6 40.3
12:55 1019 30.09 848 25.04 23.1 73.5 30 4.8 40.7
13:00 1019 30.09 848 25.04 23.3 73.9 30 5 41
13:05 1019 30.09 848 25.04 23.3 74 30 5.2 41.3
13:10 1019 30.09 848 25.04 23.2 73.8 30 4.7 40.5
13:15 1019 30.09 848 25.04 23.9 75 31 5.8 42.5
13:20 1019 30.09 848 25.04 23.5 74.4 30 5 40.9
13:25 1019 30.09 848 25.04 23.5 74.3 30 5.3 41.5
13:30 1019 30.09 848 25.04 24.2 75.5 29 5.2 41.4
13:35 1019 30.09 848 25.04 23.4 74 30 5.1 41.2
13:40 1019 30.09 848 25.04 22.6 72.8 30 4.5 40
13:45 1019 30.09 848 25.04 23 73.4 30 4.7 40.5
13:50 1018 30.06 848 25.04 24 75.2 28 4.6 40.3
13:55 1018 30.06 848 25.04 24.9 76.7 27 5 41
14:00 1018 30.06 848 25.04 23.7 74.7 31 5.6 42.1
14:05 1018 30.06 847 25.01 24.1 75.3 30 5.5 41.9
14:10 1018 30.06 847 25.01 24.9 76.8 26 4.6 40.2
14:15 1018 30.06 847 25.01 24.4 75.9 28 5 41
14:20 1018 30.06 847 25.01 24.1 75.5 29 5.4 41.8
14:25 1018 30.06 847 25.01 24.8 76.6 27 4.7 40.4
14:30 1018 30.06 847 25.01 24.7 76.4 27 4.7 40.5
14:35 1018 30.06 847 25.01 24.6 76.3 27 4.7 40.5
14:40 1018 30.06 847 25.01 25.4 77.7 27 5.1 41.1
14:45 1018 30.06 847 25.01 25 77 28 5.5 41.9
14:50 1018 30.06 847 25.01 23.8 74.9 29 5 40.9
14:55 1018 30.06 847 25.01 24 75.1 27 3.9 39.1
15:00 1018 30.06 847 25.01 25.2 77.3 26 4.4 39.9
15:05 1018 30.06 847 25.01 25.3 77.5 27 5.1 41.1
15:10 1017 30.03 847 25.01 25.2 77.3 27 5 41
15:15 1017 30.03 847 25.01 25.5 77.8 25 4.4 39.9
15:20 1017 30.03 847 25.01 25.9 78.6 25 4.5 40.1
15:25 1017 30.03 846 24.98 25.5 78 27 5.3 41.6
15:30 1017 30.03 846 24.98 25.5 77.8 26 4.9 40.8
15:35 1017 30.03 846 24.98 25.3 77.5 26 4.9 40.8
15:40 1017 30.03 846 24.98 25.5 77.9 26 4.9 40.8
15:45 1017 30.03 846 24.98 25.9 78.7 26 5.2 41.3
15:50 1017 30.03 846 24.98 25.8 78.4 24 4 39.2
15:55 1017 30.03 846 24.98 25.3 77.6 27 5.1 41.2
16:00 1017 30.03 846 24.98 25.6 78.1 26 4.9 40.8
16:05 1017 30.03 846 24.98 26.4 79.5 24 4.3 39.7
16:10 1017 30.03 846 24.98 25.5 77.8 26 5 41.1
16:15 1017 30.03 846 24.98 25.4 77.7 25 4.2 39.6
16:20 1017 30.03 846 24.98 25.8 78.4 23 3.1 37.5
16:25 1016 30 846 24.98 26.1 78.9 22 2.9 37.2
16:30 1016 30 846 24.98 26.2 79.1 22 2.9 37.2
16:35 1016 30 846 24.98 27 80.5 20 2.4 36.2
16:40 1016 30 845 24.95 26.3 79.3 22 3 37.4
16:45 1016 30 845 24.95 26.5 79.7 20 2.2 35.9
16:50 1016 30 845 24.95 26.6 79.8 20 1.7 35.1
16:55 1016 30 845 24.95 26 78.8 19 1 33.8
17:00 1016 30 845 24.95 26 78.7 19 0.8 33.5
17:05 1016 30 845 24.95 26.7 80 18 0.6 33
17:10 1016 30 845 24.95 26.9 80.4 18 1.2 34.2
17:15 1016 30 845 24.95 26.6 79.8 19 1.6 34.8
17:20 1016 30 845 24.95 26.6 80 18 0.7 33.2
17:25 1016 30 845 24.95 27.2 80.9 18 1.1 33.9
17:30 1016 30 845 24.95 27.1 80.8 16 -0.2 31.6
17:35 1016 30 845 24.95 26.7 80.1 19 1.3 34.3
17:40 1016 30 845 24.95 25.9 78.6 17 -0.5 31.1
17:45 1016 30 845 24.95 25.3 77.5 19 0.1 32.1
17:50 1016 30 845 24.95 25.4 77.7 18 -0.6 30.9
17:55 1016 30 845 24.95 25.5 77.9 18 -0.1 31.7
18:00 1016 30 845 24.95 25.2 77.4 18 -0.3 31.5
18:05 1016 30 845 24.95 25 77.1 19 -0.2 31.7
18:10 1016 30 845 24.95 25 77.1 19 -0.2 31.6
18:15 1016 30 845 24.95 25.1 77.2 18 -0.8 30.5
18:20 1016 30 845 24.95 25.2 77.3 18 -0.9 30.4
18:25 1016 30 845 24.95 25.1 77.2 17 -1.6 29.1
18:30 1016 30 845 24.95 24.6 76.2 24 2.7 36.9
18:35 1016 30 845 24.95 23.7 74.7 25 2.8 37
18:40 1016 30 845 24.95 23.6 74.6 29 4.8 40.6
18:45 1016 30 845 24.95 23.2 73.7 32 5.8 42.5
18:50 1016 30 845 24.95 22.9 73.3 34 6.2 43.2
18:55 1016 30 845 24.95 22.9 73.1 34 6.2 43.1
19:00 1016 30 845 24.95 22.9 73.2 29 4.2 39.5
19:05 1016 30 845 24.95 22.6 72.7 30 4.2 39.6
19:10 1016 30 845 24.95 22.4 72.3 29 3.7 38.7
19:15 1016 30 845 24.95 22.5 72.5 29 3.7 38.7
19:20 1016 30 845 24.95 22.5 72.4 29 4 39.2
19:25 1016 30 845 24.95 22.4 72.3 30 4.2 39.5
19:30 1016 30 845 24.95 22.3 72.2 32 4.9 40.8
19:35 1016 30 845 24.95 22.4 72.3 30 4.2 39.5
19:40 1016 30 845 24.95 22.3 72.2 31 4.8 40.6
19:45 1016 30 845 24.95 22.4 72.3 34 5.9 42.7
19:50 1016 30 845 24.95 22.1 71.8 32 5 40.9
19:55 1016 30 845 24.95 22 71.5 33 5.2 41.3
20:00 1016 30 845 24.95 21.8 71.3 34 5.3 41.6
20:05 1016 30 845 24.95 21.8 71.2 34 5.2 41.4
20:10 1016 30 845 24.95 21.7 71 34 5.5 41.8
20:15 1016 30 845 24.95 21.6 70.8 35 5.7 42.2
20:20 1016 30 845 24.95 21.6 70.8 33 4.9 40.7
20:25 1016 30 845 24.95 21.6 71 35 5.8 42.4
20:30 1016 30 845 24.95 21.1 70 36 5.7 42.3
20:35 1016 30 845 24.95 20.6 69.1 39 6.2 43.2
20:40 1016 30 845 24.95 20.2 68.3 40 6.3 43.3
20:45 1016 30 845 24.95 20 67.9 40 6.2 43.1
20:50 1016 30 845 24.95 19.7 67.5 41 6.1 43
20:55 1016 30 845 24.95 19.4 67 41 6.2 43.1
21:00 1016 30 845 24.95 19.1 66.4 42 6 42.8
21:05 1016 30 845 24.95 19 66.1 42 5.8 42.4
21:10 1016 30 845 24.95 18.9 66 42 5.8 42.4
21:15 1016 30 845 24.95 18.8 65.8 42 5.7 42.2
21:20 1016 30 845 24.95 18.6 65.6 43 6.1 42.9
21:25 1016 30 845 24.95 18.5 65.3 44 6.1 43
21:30 1016 30 845 24.95 18.3 64.9 45 6.3 43.3
21:35 1016 30 845 24.95 18.3 64.9 43 5.5 41.9
21:40 1016 30 845 24.95 18.5 65.3 43 5.7 42.2
21:45 1016 30 845 24.95 18.4 65.2 43 5.8 42.5
21:50 1016 30 845 24.95 18.1 64.7 48 7.2 45
21:55 1016 30 845 24.95 17.5 63.5 49 6.8 44.2
22:00 1016 30 845 24.95 17.6 63.7 46 5.8 42.5
22:05 1016 30 845 24.95 17.7 63.8 45 5.8 42.5
22:10 1016 30 845 24.95 17.6 63.7 45 5.5 42
22:15 1016 30 845 24.95 17.6 63.6 45 5.7 42.3
22:20 1016 30 845 24.95 17.6 63.6 46 6 42.7
22:25 1016 30 845 24.95 17.4 63.2 44 5.2 41.3
22:30 1016 30 846 24.98 17.5 63.6 44 5.3 41.6
22:35 1016 30 846 24.98 17.5 63.5 45 5.5 41.9
22:40 1016 30 846 24.98 17.4 63.3 46 5.7 42.2
22:45 1016 30 846 24.98 17.4 63.3 45 5.6 42.1
22:50 1016 30 846 24.98 17.4 63.3 46 5.6 42.1
22:55 1016 30 846 24.98 17.2 63 47 5.8 42.5
23:00 1016 30 846 24.98 16.9 62.3 49 6.1 43
23:05 1017 30.03 846 24.98 16.8 62.3 49 6 42.8
23:10 1016 30 845 24.95 16.6 61.9 48 5.8 42.4
23:15 1016 30 845 24.95 16.5 61.6 52 6.5 43.8
23:20 1016 30 845 24.95 16.3 61.3 50 6 42.8
23:25 1016 30 845 24.95 16.2 61.1 50 5.9 42.6
23:30 1016 30 845 24.95 16 60.8 52 6.2 43.2
23:35 1016 30 845 24.95 15.7 60.3 52 6.1 43
23:40 1016 30 845 24.95 15.5 60 53 6.1 42.9
23:45 1016 30 845 24.95 15.4 59.7 53 6 42.7
23:50 1016 30 845 24.95 15.5 59.9 56 6.9 44.4
23:55 1016 30 845 24.95 15.4 59.7 52 5.7 42.2
24:00 1016 30 845 24.95 15.7 60.3 49 5.3 41.5